sensor_id;sensor_type;location;lat;lon;timestamp;P1;durP1;ratioP1;P2;durP2;ratioP2
11422;SDS011;5768;51.476;7.210;2023-07-16T00:01:17;3.00;;;1.67;;
11422;SDS011;5768;51.476;7.210;2023-07-16T00:06:19;3.65;;;2.15;;
11422;SDS011;5768;51.476;7.210;2023-07-16T00:11:23;4.05;;;1.80;;
11422;SDS011;5768;51.476;7.210;2023-07-16T00:16:25;3.20;;;2.20;;
11422;SDS011;5768;51.476;7.210;2023-07-16T00:21:27;2.78;;;1.90;;
11422;SDS011;5768;51.476;7.210;2023-07-16T00:26:31;3.03;;;1.92;;
11422;SDS011;5768;51.476;7.210;2023-07-16T00:31:34;2.95;;;2.00;;
11422;SDS011;5768;51.476;7.210;2023-07-16T00:36:36;4.28;;;1.85;;
11422;SDS011;5768;51.476;7.210;2023-07-16T00:41:39;3.78;;;1.95;;
11422;SDS011;5768;51.476;7.210;2023-07-16T00:46:42;4.35;;;2.20;;
11422;SDS011;5768;51.476;7.210;2023-07-16T00:51:44;2.70;;;1.80;;
11422;SDS011;5768;51.476;7.210;2023-07-16T00:56:48;3.75;;;1.90;;
11422;SDS011;5768;51.476;7.210;2023-07-16T01:01:51;4.18;;;2.15;;
11422;SDS011;5768;51.476;7.210;2023-07-16T01:06:53;3.78;;;2.20;;
11422;SDS011;5768;51.476;7.210;2023-07-16T01:12:03;4.70;;;2.13;;
11422;SDS011;5768;51.476;7.210;2023-07-16T01:17:07;3.10;;;2.03;;
11422;SDS011;5768;51.476;7.210;2023-07-16T01:22:25;5.10;;;2.40;;
11422;SDS011;5768;51.476;7.210;2023-07-16T01:27:49;3.67;;;2.20;;
11422;SDS011;5768;51.476;7.210;2023-07-16T01:33:08;2.58;;;2.20;;
11422;SDS011;5768;51.476;7.210;2023-07-16T01:38:14;3.38;;;2.22;;
11422;SDS011;5768;51.476;7.210;2023-07-16T01:43:18;2.75;;;2.00;;
11422;SDS011;5768;51.476;7.210;2023-07-16T01:48:24;3.40;;;2.10;;
11422;SDS011;5768;51.476;7.210;2023-07-16T01:53:33;4.85;;;2.25;;
11422;SDS011;5768;51.476;7.210;2023-07-16T01:58:35;4.65;;;2.05;;
11422;SDS011;5768;51.476;7.210;2023-07-16T02:03:38;2.78;;;2.20;;
11422;SDS011;5768;51.476;7.210;2023-07-16T02:08:41;4.15;;;2.40;;
11422;SDS011;5768;51.476;7.210;2023-07-16T02:13:43;3.30;;;2.20;;
11422;SDS011;5768;51.476;7.210;2023-07-16T02:18:47;3.88;;;1.92;;
11422;SDS011;5768;51.476;7.210;2023-07-16T02:23:49;3.40;;;1.88;;
11422;SDS011;5768;51.476;7.210;2023-07-16T02:28:52;4.47;;;2.13;;
11422;SDS011;5768;51.476;7.210;2023-07-16T02:33:56;4.15;;;2.08;;
11422;SDS011;5768;51.476;7.210;2023-07-16T02:38:58;3.78;;;1.85;;
11422;SDS011;5768;51.476;7.210;2023-07-16T02:44:00;3.90;;;2.10;;
11422;SDS011;5768;51.476;7.210;2023-07-16T02:49:07;5.35;;;1.80;;
11422;SDS011;5768;51.476;7.210;2023-07-16T02:54:09;6.80;;;2.38;;
11422;SDS011;5768;51.476;7.210;2023-07-16T02:59:11;6.18;;;1.80;;
11422;SDS011;5768;51.476;7.210;2023-07-16T03:04:14;3.72;;;2.13;;
11422;SDS011;5768;51.476;7.210;2023-07-16T03:09:17;5.07;;;2.20;;
11422;SDS011;5768;51.476;7.210;2023-07-16T03:14:19;2.83;;;1.80;;
11422;SDS011;5768;51.476;7.210;2023-07-16T03:19:23;5.18;;;1.90;;
11422;SDS011;5768;51.476;7.210;2023-07-16T03:24:25;7.53;;;2.53;;
11422;SDS011;5768;51.476;7.210;2023-07-16T03:29:27;3.38;;;1.75;;
11422;SDS011;5768;51.476;7.210;2023-07-16T03:34:31;7.00;;;2.20;;
11422;SDS011;5768;51.476;7.210;2023-07-16T03:39:33;2.78;;;2.03;;
11422;SDS011;5768;51.476;7.210;2023-07-16T03:44:35;3.63;;;2.03;;
11422;SDS011;5768;51.476;7.210;2023-07-16T03:49:39;2.45;;;1.50;;
11422;SDS011;5768;51.476;7.210;2023-07-16T03:54:41;4.15;;;2.22;;
11422;SDS011;5768;51.476;7.210;2023-07-16T03:59:43;7.68;;;2.17;;
11422;SDS011;5768;51.476;7.210;2023-07-16T04:04:47;3.97;;;1.55;;
11422;SDS011;5768;51.476;7.210;2023-07-16T04:09:50;3.80;;;1.90;;
11422;SDS011;5768;51.476;7.210;2023-07-16T04:14:54;5.20;;;2.08;;
11422;SDS011;5768;51.476;7.210;2023-07-16T04:20:01;6.38;;;2.50;;
11422;SDS011;5768;51.476;7.210;2023-07-16T04:25:05;6.25;;;2.50;;
11422;SDS011;5768;51.476;7.210;2023-07-16T04:30:08;3.67;;;2.28;;
11422;SDS011;5768;51.476;7.210;2023-07-16T04:35:13;5.38;;;2.78;;
11422;SDS011;5768;51.476;7.210;2023-07-16T04:40:15;4.53;;;2.10;;
11422;SDS011;5768;51.476;7.210;2023-07-16T04:45:17;2.55;;;1.65;;
11422;SDS011;5768;51.476;7.210;2023-07-16T04:50:21;5.13;;;2.65;;
11422;SDS011;5768;51.476;7.210;2023-07-16T04:55:23;7.13;;;2.60;;
11422;SDS011;5768;51.476;7.210;2023-07-16T05:00:25;6.68;;;2.40;;
11422;SDS011;5768;51.476;7.210;2023-07-16T05:05:29;4.97;;;2.38;;
11422;SDS011;5768;51.476;7.210;2023-07-16T05:10:32;4.78;;;2.45;;
11422;SDS011;5768;51.476;7.210;2023-07-16T05:15:35;7.75;;;2.95;;
11422;SDS011;5768;51.476;7.210;2023-07-16T05:20:42;4.80;;;2.75;;
11422;SDS011;5768;51.476;7.210;2023-07-16T05:25:48;4.40;;;2.80;;
11422;SDS011;5768;51.476;7.210;2023-07-16T05:30:57;6.95;;;2.88;;
11422;SDS011;5768;51.476;7.210;2023-07-16T05:36:01;5.38;;;2.78;;
11422;SDS011;5768;51.476;7.210;2023-07-16T05:41:04;4.30;;;2.20;;
11422;SDS011;5768;51.476;7.210;2023-07-16T05:46:07;5.03;;;2.38;;
11422;SDS011;5768;51.476;7.210;2023-07-16T05:51:11;6.10;;;2.65;;
11422;SDS011;5768;51.476;7.210;2023-07-16T05:56:13;6.15;;;2.10;;
11422;SDS011;5768;51.476;7.210;2023-07-16T06:01:15;8.30;;;2.90;;
11422;SDS011;5768;51.476;7.210;2023-07-16T06:06:18;4.32;;;2.55;;
11422;SDS011;5768;51.476;7.210;2023-07-16T06:11:21;3.75;;;2.00;;
11422;SDS011;5768;51.476;7.210;2023-07-16T06:16:23;3.67;;;2.20;;
11422;SDS011;5768;51.476;7.210;2023-07-16T06:21:27;6.20;;;3.42;;
11422;SDS011;5768;51.476;7.210;2023-07-16T06:26:30;7.97;;;2.33;;
11422;SDS011;5768;51.476;7.210;2023-07-16T06:31:33;4.68;;;3.10;;
11422;SDS011;5768;51.476;7.210;2023-07-16T06:36:38;6.78;;;2.63;;
11422;SDS011;5768;51.476;7.210;2023-07-16T06:41:41;5.80;;;3.40;;
11422;SDS011;5768;51.476;7.210;2023-07-16T06:46:43;6.15;;;3.47;;
11422;SDS011;5768;51.476;7.210;2023-07-16T06:51:47;6.45;;;3.60;;
11422;SDS011;5768;51.476;7.210;2023-07-16T06:56:49;6.05;;;3.13;;
11422;SDS011;5768;51.476;7.210;2023-07-16T07:01:51;6.68;;;3.55;;
11422;SDS011;5768;51.476;7.210;2023-07-16T07:06:55;5.85;;;3.90;;
11422;SDS011;5768;51.476;7.210;2023-07-16T07:11:57;4.75;;;3.13;;
11422;SDS011;5768;51.476;7.210;2023-07-16T07:16:59;6.05;;;3.25;;
11422;SDS011;5768;51.476;7.210;2023-07-16T07:22:03;7.18;;;3.35;;
11422;SDS011;5768;51.476;7.210;2023-07-16T07:27:06;5.10;;;3.80;;
11422;SDS011;5768;51.476;7.210;2023-07-16T07:32:08;4.90;;;3.53;;
11422;SDS011;5768;51.476;7.210;2023-07-16T07:37:13;5.43;;;3.08;;
11422;SDS011;5768;51.476;7.210;2023-07-16T07:42:15;5.95;;;3.67;;
11422;SDS011;5768;51.476;7.210;2023-07-16T07:47:17;6.55;;;3.88;;
11422;SDS011;5768;51.476;7.210;2023-07-16T07:52:21;7.68;;;4.07;;
11422;SDS011;5768;51.476;7.210;2023-07-16T07:57:23;4.43;;;2.92;;
11422;SDS011;5768;51.476;7.210;2023-07-16T08:02:26;7.65;;;3.78;;
11422;SDS011;5768;51.476;7.210;2023-07-16T08:07:30;5.88;;;3.92;;
11422;SDS011;5768;51.476;7.210;2023-07-16T08:12:32;6.65;;;3.83;;
11422;SDS011;5768;51.476;7.210;2023-07-16T08:17:35;6.43;;;3.30;;
11422;SDS011;5768;51.476;7.210;2023-07-16T08:22:38;3.45;;;2.75;;
11422;SDS011;5768;51.476;7.210;2023-07-16T08:27:41;5.85;;;3.65;;
11422;SDS011;5768;51.476;7.210;2023-07-16T08:32:43;6.18;;;3.60;;
11422;SDS011;5768;51.476;7.210;2023-07-16T08:37:48;6.05;;;4.25;;
11422;SDS011;5768;51.476;7.210;2023-07-16T08:42:50;6.20;;;3.92;;
11422;SDS011;5768;51.476;7.210;2023-07-16T08:47:53;5.03;;;3.75;;
11422;SDS011;5768;51.476;7.210;2023-07-16T08:52:58;3.33;;;2.63;;
11422;SDS011;5768;51.476;7.210;2023-07-16T08:58:02;3.20;;;2.40;;
11422;SDS011;5768;51.476;7.210;2023-07-16T09:03:06;5.88;;;3.25;;
11422;SDS011;5768;51.476;7.210;2023-07-16T09:08:10;3.83;;;3.28;;
11422;SDS011;5768;51.476;7.210;2023-07-16T09:13:18;5.75;;;3.70;;
11422;SDS011;5768;51.476;7.210;2023-07-16T09:18:20;4.10;;;2.38;;
11422;SDS011;5768;51.476;7.210;2023-07-16T09:23:26;4.03;;;3.13;;
11422;SDS011;5768;51.476;7.210;2023-07-16T09:28:30;3.13;;;2.05;;
11422;SDS011;5768;51.476;7.210;2023-07-16T09:33:33;4.15;;;3.20;;
11422;SDS011;5768;51.476;7.210;2023-07-16T09:38:37;4.60;;;2.67;;
11422;SDS011;5768;51.476;7.210;2023-07-16T09:43:39;5.15;;;3.08;;
11422;SDS011;5768;51.476;7.210;2023-07-16T09:48:43;2.95;;;2.53;;
11422;SDS011;5768;51.476;7.210;2023-07-16T09:53:46;5.03;;;3.13;;
11422;SDS011;5768;51.476;7.210;2023-07-16T09:58:52;7.13;;;3.13;;
11422;SDS011;5768;51.476;7.210;2023-07-16T10:03:55;4.55;;;3.00;;
11422;SDS011;5768;51.476;7.210;2023-07-16T10:08:59;3.28;;;2.53;;
11422;SDS011;5768;51.476;7.210;2023-07-16T10:14:02;4.57;;;3.10;;
11422;SDS011;5768;51.476;7.210;2023-07-16T10:19:04;5.57;;;3.10;;
11422;SDS011;5768;51.476;7.210;2023-07-16T10:24:15;6.32;;;2.72;;
11422;SDS011;5768;51.476;7.210;2023-07-16T10:29:19;4.45;;;3.20;;
11422;SDS011;5768;51.476;7.210;2023-07-16T10:34:22;3.47;;;2.53;;
11422;SDS011;5768;51.476;7.210;2023-07-16T10:39:26;5.88;;;3.15;;
11422;SDS011;5768;51.476;7.210;2023-07-16T10:44:29;4.65;;;3.00;;
11422;SDS011;5768;51.476;7.210;2023-07-16T10:49:32;2.95;;;2.35;;
11422;SDS011;5768;51.476;7.210;2023-07-16T10:54:35;3.67;;;2.90;;
11422;SDS011;5768;51.476;7.210;2023-07-16T10:59:38;4.38;;;2.42;;
11422;SDS011;5768;51.476;7.210;2023-07-16T11:04:41;4.15;;;2.60;;
11422;SDS011;5768;51.476;7.210;2023-07-16T11:09:47;6.80;;;3.22;;
11422;SDS011;5768;51.476;7.210;2023-07-16T11:14:51;4.80;;;3.28;;
11422;SDS011;5768;51.476;7.210;2023-07-16T11:19:55;4.95;;;2.97;;
11422;SDS011;5768;51.476;7.210;2023-07-16T11:25:02;7.03;;;2.95;;
11422;SDS011;5768;51.476;7.210;2023-07-16T11:30:12;4.38;;;3.00;;
11422;SDS011;5768;51.476;7.210;2023-07-16T11:35:15;3.65;;;2.22;;
11422;SDS011;5768;51.476;7.210;2023-07-16T11:40:20;5.05;;;2.67;;
11422;SDS011;5768;51.476;7.210;2023-07-16T11:45:24;3.67;;;2.83;;
11422;SDS011;5768;51.476;7.210;2023-07-16T11:50:27;4.63;;;2.88;;
11422;SDS011;5768;51.476;7.210;2023-07-16T11:55:31;5.05;;;3.10;;
11422;SDS011;5768;51.476;7.210;2023-07-16T12:00:33;6.05;;;3.08;;
11422;SDS011;5768;51.476;7.210;2023-07-16T12:05:36;2.47;;;1.88;;
11422;SDS011;5768;51.476;7.210;2023-07-16T12:10:39;5.63;;;3.13;;
11422;SDS011;5768;51.476;7.210;2023-07-16T12:15:42;3.53;;;2.90;;
11422;SDS011;5768;51.476;7.210;2023-07-16T12:20:44;3.65;;;2.80;;
11422;SDS011;5768;51.476;7.210;2023-07-16T12:25:48;3.58;;;2.40;;
11422;SDS011;5768;51.476;7.210;2023-07-16T12:30:51;5.97;;;2.53;;
11422;SDS011;5768;51.476;7.210;2023-07-16T12:35:53;5.75;;;2.78;;
11422;SDS011;5768;51.476;7.210;2023-07-16T12:40:57;3.90;;;2.75;;
11422;SDS011;5768;51.476;7.210;2023-07-16T12:46:00;6.43;;;2.72;;
11422;SDS011;5768;51.476;7.210;2023-07-16T12:51:03;4.22;;;2.70;;
11422;SDS011;5768;51.476;7.210;2023-07-16T12:56:07;3.70;;;2.80;;
11422;SDS011;5768;51.476;7.210;2023-07-16T13:01:09;3.55;;;2.78;;
11422;SDS011;5768;51.476;7.210;2023-07-16T13:06:12;4.00;;;2.67;;
11422;SDS011;5768;51.476;7.210;2023-07-16T13:11:15;5.32;;;3.10;;
11422;SDS011;5768;51.476;7.210;2023-07-16T13:16:18;4.78;;;2.25;;
11422;SDS011;5768;51.476;7.210;2023-07-16T13:21:20;5.90;;;3.10;;
11422;SDS011;5768;51.476;7.210;2023-07-16T13:26:23;9.40;;;2.90;;
11422;SDS011;5768;51.476;7.210;2023-07-16T13:31:26;4.60;;;2.70;;
11422;SDS011;5768;51.476;7.210;2023-07-16T13:36:28;6.22;;;3.03;;
11422;SDS011;5768;51.476;7.210;2023-07-16T13:41:32;3.72;;;2.85;;
11422;SDS011;5768;51.476;7.210;2023-07-16T13:46:35;5.72;;;2.78;;
11422;SDS011;5768;51.476;7.210;2023-07-16T13:51:37;4.35;;;3.08;;
11422;SDS011;5768;51.476;7.210;2023-07-16T13:56:41;4.57;;;3.25;;
11422;SDS011;5768;51.476;7.210;2023-07-16T14:01:43;6.13;;;3.33;;
11422;SDS011;5768;51.476;7.210;2023-07-16T14:06:46;5.07;;;3.28;;
11422;SDS011;5768;51.476;7.210;2023-07-16T14:11:50;4.88;;;3.28;;
11422;SDS011;5768;51.476;7.210;2023-07-16T14:16:52;5.35;;;3.10;;
11422;SDS011;5768;51.476;7.210;2023-07-16T14:21:55;8.10;;;3.42;;
11422;SDS011;5768;51.476;7.210;2023-07-16T14:26:59;4.25;;;2.72;;
11422;SDS011;5768;51.476;7.210;2023-07-16T14:32:02;4.15;;;2.92;;
11422;SDS011;5768;51.476;7.210;2023-07-16T14:37:05;4.57;;;3.40;;
11422;SDS011;5768;51.476;7.210;2023-07-16T14:42:09;5.15;;;2.88;;
11422;SDS011;5768;51.476;7.210;2023-07-16T14:47:11;4.82;;;2.60;;
11422;SDS011;5768;51.476;7.210;2023-07-16T14:52:13;4.20;;;3.08;;
11422;SDS011;5768;51.476;7.210;2023-07-16T14:57:17;4.55;;;2.90;;
11422;SDS011;5768;51.476;7.210;2023-07-16T15:02:19;6.25;;;3.05;;
11422;SDS011;5768;51.476;7.210;2023-07-16T15:07:21;7.15;;;3.03;;
11422;SDS011;5768;51.476;7.210;2023-07-16T15:12:25;6.70;;;3.17;;
11422;SDS011;5768;51.476;7.210;2023-07-16T15:17:27;2.95;;;2.20;;
11422;SDS011;5768;51.476;7.210;2023-07-16T15:22:29;4.00;;;2.75;;
11422;SDS011;5768;51.476;7.210;2023-07-16T15:27:35;5.35;;;2.78;;
11422;SDS011;5768;51.476;7.210;2023-07-16T15:32:37;4.80;;;2.58;;
11422;SDS011;5768;51.476;7.210;2023-07-16T15:37:39;4.70;;;2.50;;
11422;SDS011;5768;51.476;7.210;2023-07-16T15:42:44;4.10;;;2.67;;
11422;SDS011;5768;51.476;7.210;2023-07-16T15:47:46;3.83;;;2.72;;
11422;SDS011;5768;51.476;7.210;2023-07-16T15:52:49;5.03;;;2.70;;
11422;SDS011;5768;51.476;7.210;2023-07-16T15:57:53;5.22;;;3.00;;
11422;SDS011;5768;51.476;7.210;2023-07-16T16:02:56;4.38;;;2.63;;
11422;SDS011;5768;51.476;7.210;2023-07-16T16:08:11;3.60;;;2.60;;
11422;SDS011;5768;51.476;7.210;2023-07-16T16:13:17;4.03;;;2.65;;
11422;SDS011;5768;51.476;7.210;2023-07-16T16:18:21;3.85;;;2.65;;
11422;SDS011;5768;51.476;7.210;2023-07-16T16:23:25;4.22;;;2.80;;
11422;SDS011;5768;51.476;7.210;2023-07-16T16:28:29;5.88;;;3.10;;
11422;SDS011;5768;51.476;7.210;2023-07-16T16:33:31;3.03;;;2.08;;
11422;SDS011;5768;51.476;7.210;2023-07-16T16:38:34;4.00;;;2.95;;
11422;SDS011;5768;51.476;7.210;2023-07-16T16:43:37;3.60;;;2.50;;
11422;SDS011;5768;51.476;7.210;2023-07-16T16:48:40;3.25;;;2.83;;
11422;SDS011;5768;51.476;7.210;2023-07-16T16:53:43;3.85;;;2.83;;
11422;SDS011;5768;51.476;7.210;2023-07-16T16:58:46;2.83;;;2.17;;
11422;SDS011;5768;51.476;7.210;2023-07-16T17:03:48;4.45;;;2.60;;
11422;SDS011;5768;51.476;7.210;2023-07-16T17:08:51;5.32;;;3.00;;
11422;SDS011;5768;51.476;7.210;2023-07-16T17:13:54;4.32;;;2.70;;
11422;SDS011;5768;51.476;7.210;2023-07-16T17:18:56;5.47;;;3.42;;
11422;SDS011;5768;51.476;7.210;2023-07-16T17:23:58;3.33;;;2.60;;
11422;SDS011;5768;51.476;7.210;2023-07-16T17:29:03;3.05;;;2.75;;
11422;SDS011;5768;51.476;7.210;2023-07-16T17:34:05;3.60;;;2.42;;
11422;SDS011;5768;51.476;7.210;2023-07-16T17:39:08;4.78;;;2.95;;
11422;SDS011;5768;51.476;7.210;2023-07-16T17:44:11;4.95;;;2.95;;
11422;SDS011;5768;51.476;7.210;2023-07-16T17:49:13;3.95;;;2.85;;
11422;SDS011;5768;51.476;7.210;2023-07-16T17:54:15;4.38;;;3.03;;
11422;SDS011;5768;51.476;7.210;2023-07-16T17:59:19;4.47;;;2.97;;
11422;SDS011;5768;51.476;7.210;2023-07-16T18:04:22;4.97;;;2.70;;
11422;SDS011;5768;51.476;7.210;2023-07-16T18:09:25;4.15;;;3.20;;
11422;SDS011;5768;51.476;7.210;2023-07-16T18:14:28;4.45;;;3.08;;
11422;SDS011;5768;51.476;7.210;2023-07-16T18:19:31;4.90;;;3.08;;
11422;SDS011;5768;51.476;7.210;2023-07-16T18:24:33;5.53;;;3.22;;
11422;SDS011;5768;51.476;7.210;2023-07-16T18:29:37;5.20;;;3.00;;
11422;SDS011;5768;51.476;7.210;2023-07-16T18:34:39;6.78;;;3.25;;
11422;SDS011;5768;51.476;7.210;2023-07-16T18:39:41;4.95;;;3.28;;
11422;SDS011;5768;51.476;7.210;2023-07-16T18:44:45;6.03;;;3.55;;
11422;SDS011;5768;51.476;7.210;2023-07-16T18:49:47;7.07;;;3.50;;
11422;SDS011;5768;51.476;7.210;2023-07-16T18:54:49;6.15;;;3.72;;
11422;SDS011;5768;51.476;7.210;2023-07-16T18:59:54;3.78;;;3.10;;
11422;SDS011;5768;51.476;7.210;2023-07-16T19:04:56;7.53;;;3.30;;
11422;SDS011;5768;51.476;7.210;2023-07-16T19:09:58;6.22;;;3.45;;
11422;SDS011;5768;51.476;7.210;2023-07-16T19:15:06;4.97;;;3.33;;
11422;SDS011;5768;51.476;7.210;2023-07-16T19:20:10;7.25;;;3.53;;
11422;SDS011;5768;51.476;7.210;2023-07-16T19:25:12;5.22;;;3.20;;
11422;SDS011;5768;51.476;7.210;2023-07-16T19:30:16;5.45;;;3.40;;
11422;SDS011;5768;51.476;7.210;2023-07-16T19:35:18;6.65;;;4.07;;
11422;SDS011;5768;51.476;7.210;2023-07-16T19:40:21;4.85;;;3.30;;
11422;SDS011;5768;51.476;7.210;2023-07-16T19:45:25;5.30;;;3.65;;
11422;SDS011;5768;51.476;7.210;2023-07-16T19:50:28;5.50;;;3.70;;
11422;SDS011;5768;51.476;7.210;2023-07-16T19:55:30;5.85;;;3.75;;
11422;SDS011;5768;51.476;7.210;2023-07-16T20:00:38;7.45;;;3.55;;
11422;SDS011;5768;51.476;7.210;2023-07-16T20:05:40;6.45;;;3.63;;
11422;SDS011;5768;51.476;7.210;2023-07-16T20:10:44;7.50;;;3.60;;
11422;SDS011;5768;51.476;7.210;2023-07-16T20:15:49;7.05;;;4.05;;
11422;SDS011;5768;51.476;7.210;2023-07-16T20:20:51;6.07;;;3.70;;
11422;SDS011;5768;51.476;7.210;2023-07-16T20:25:55;7.32;;;3.75;;
11422;SDS011;5768;51.476;7.210;2023-07-16T20:30:58;6.10;;;3.88;;
11422;SDS011;5768;51.476;7.210;2023-07-16T20:36:01;6.63;;;3.75;;
11422;SDS011;5768;51.476;7.210;2023-07-16T20:41:04;5.63;;;3.47;;
11422;SDS011;5768;51.476;7.210;2023-07-16T20:46:07;6.47;;;3.75;;
11422;SDS011;5768;51.476;7.210;2023-07-16T20:51:10;7.15;;;4.03;;
11422;SDS011;5768;51.476;7.210;2023-07-16T20:56:12;6.18;;;4.05;;
11422;SDS011;5768;51.476;7.210;2023-07-16T21:01:16;6.63;;;4.57;;
11422;SDS011;5768;51.476;7.210;2023-07-16T21:06:18;6.25;;;3.80;;
11422;SDS011;5768;51.476;7.210;2023-07-16T21:11:21;7.78;;;4.40;;
11422;SDS011;5768;51.476;7.210;2023-07-16T21:16:26;5.85;;;3.75;;
11422;SDS011;5768;51.476;7.210;2023-07-16T21:21:28;8.95;;;4.05;;
11422;SDS011;5768;51.476;7.210;2023-07-16T21:26:30;5.82;;;3.90;;
11422;SDS011;5768;51.476;7.210;2023-07-16T21:31:34;7.78;;;4.20;;
11422;SDS011;5768;51.476;7.210;2023-07-16T21:36:36;6.53;;;3.67;;
11422;SDS011;5768;51.476;7.210;2023-07-16T21:41:38;7.22;;;3.85;;
11422;SDS011;5768;51.476;7.210;2023-07-16T21:46:42;5.32;;;3.72;;
11422;SDS011;5768;51.476;7.210;2023-07-16T21:51:44;6.45;;;4.22;;
11422;SDS011;5768;51.476;7.210;2023-07-16T21:56:46;6.18;;;4.13;;
11422;SDS011;5768;51.476;7.210;2023-07-16T22:01:50;6.20;;;4.15;;
11422;SDS011;5768;51.476;7.210;2023-07-16T22:06:52;5.35;;;3.60;;
11422;SDS011;5768;51.476;7.210;2023-07-16T22:11:54;6.72;;;3.67;;
11422;SDS011;5768;51.476;7.210;2023-07-16T22:16:58;6.30;;;3.95;;
11422;SDS011;5768;51.476;7.210;2023-07-16T22:22:00;7.90;;;4.22;;
11422;SDS011;5768;51.476;7.210;2023-07-16T22:27:03;6.53;;;3.80;;
11422;SDS011;5768;51.476;7.210;2023-07-16T22:32:07;8.18;;;4.18;;
11422;SDS011;5768;51.476;7.210;2023-07-16T22:37:10;5.05;;;3.80;;
11422;SDS011;5768;51.476;7.210;2023-07-16T22:42:13;6.45;;;3.75;;
11422;SDS011;5768;51.476;7.210;2023-07-16T22:47:17;6.25;;;4.30;;
11422;SDS011;5768;51.476;7.210;2023-07-16T22:52:19;6.13;;;4.13;;
11422;SDS011;5768;51.476;7.210;2023-07-16T22:57:21;7.00;;;4.10;;
11422;SDS011;5768;51.476;7.210;2023-07-16T23:02:26;5.53;;;4.13;;
11422;SDS011;5768;51.476;7.210;2023-07-16T23:07:29;6.25;;;4.40;;
11422;SDS011;5768;51.476;7.210;2023-07-16T23:12:31;6.63;;;4.05;;
11422;SDS011;5768;51.476;7.210;2023-07-16T23:17:35;7.43;;;4.50;;
11422;SDS011;5768;51.476;7.210;2023-07-16T23:22:37;6.18;;;3.95;;
11422;SDS011;5768;51.476;7.210;2023-07-16T23:27:40;6.82;;;4.13;;
11422;SDS011;5768;51.476;7.210;2023-07-16T23:32:44;6.15;;;4.05;;
11422;SDS011;5768;51.476;7.210;2023-07-16T23:37:46;6.43;;;4.07;;
11422;SDS011;5768;51.476;7.210;2023-07-16T23:42:49;5.50;;;3.75;;
11422;SDS011;5768;51.476;7.210;2023-07-16T23:47:53;5.10;;;3.55;;
11422;SDS011;5768;51.476;7.210;2023-07-16T23:52:55;5.82;;;4.07;;
11422;SDS011;5768;51.476;7.210;2023-07-16T23:57:57;5.63;;;3.88;;
